Billet, Illinois
Current Conditions -  °F | °C
As of 8:53 PM on Thursday 18 Dec 2014 (Local Time) from KLWV Reporting Station
Overcast Overcast  
Wind Chill: 31°   Ceiling: 4900
Heat Index: 31°   Visibility: 9mi
Dew Point: 25°   Wind: 0mph
Humidity: 79%   Direction: NA
Pressure: 30.28"   Gusts: NA
Location:  38.7501°N, 87.6141°W
Report Text: KLWV 190253Z AUTO 00000KT 9SM OVC049 M01/M04 A3028 RMK AO2 SLP258 T10061039 51006
Loading
Personal Weather Stations






























Interactive Weather Map New forecast layout! Learn more

10-Day Weather Forecast

Advertisements
Track Severe Weather on mobile